Time;durP1;ratioP1;P1;durP2;ratioP2;P2;SDS_P1;SDS_P2;PMS_P1;PMS_P2;Temp;Humidity;BMP_temperature;BMP_pressure;BME280_temperature;BME280_humidity;BME280_pressure;Samples;Min_cycle;Max_cycle;Signal;HPM_P1;HPM_P2
2021/03/13 00:01:04;;;;;;;18.63;3.87;;;7.50;92.70;;;;;;4358031;32;20262;-64
2021/03/13 00:03:30;;;;;;;19.97;4.30;;;7.50;92.80;;;;;;4360055;32;20563;-65
2021/03/13 00:05:57;;;;;;;22.33;5.47;;;7.50;93.00;;;;;;4359008;32;20263;-65
2021/03/13 00:08:24;;;;;;;20.60;4.40;;;7.50;93.00;;;;;;4349284;32;20256;-64
2021/03/13 00:10:50;;;;;;;18.53;4.33;;;7.50;93.10;;;;;;4352139;32;20649;-64
2021/03/13 00:13:18;;;;;;;22.23;4.60;;;7.50;93.10;;;;;;4361449;32;20208;-64
2021/03/13 00:15:45;;;;;;;25.67;5.30;;;7.50;93.10;;;;;;4360193;32;20216;-66
2021/03/13 00:18:12;;;;;;;26.73;5.00;;;7.50;93.10;;;;;;4352738;33;20232;-63
2021/03/13 00:20:41;;;;;;;18.90;4.67;;;7.50;92.90;;;;;;4368354;32;20536;-63
2021/03/13 00:23:07;;;;;;;34.13;5.83;;;7.50;93.00;;;;;;4360434;33;20255;-65
2021/03/13 00:25:35;;;;;;;23.67;5.27;;;7.50;92.80;;;;;;4355502;32;20224;-64
2021/03/13 00:28:02;;;;;;;22.07;5.17;;;7.60;92.80;;;;;;4347996;32;20617;-65
2021/03/13 00:30:31;;;;;;;19.83;5.60;;;7.50;92.70;;;;;;4373130;32;20261;-65
2021/03/13 00:32:59;;;;;;;20.43;5.70;;;7.60;92.50;;;;;;4377289;32;20172;-63
2021/03/13 00:35:26;;;;;;;25.50;4.80;;;7.60;92.50;;;;;;4363987;32;20198;-65
2021/03/13 00:37:53;;;;;;;19.03;5.23;;;7.60;92.30;;;;;;4345813;33;20180;-63
2021/03/13 00:40:22;;;;;;;16.03;4.97;;;7.60;92.40;;;;;;4353184;32;20626;-64
2021/03/13 00:42:49;;;;;;;22.30;5.50;;;7.60;92.50;;;;;;4345708;33;20157;-66
2021/03/13 00:45:17;;;;;;;20.67;4.50;;;7.60;92.30;;;;;;4368115;32;20236;-64
2021/03/13 00:47:45;;;;;;;19.27;4.97;;;7.60;92.40;;;;;;4374559;32;20210;-63
2021/03/13 00:50:13;;;;;;;20.87;4.70;;;7.50;92.30;;;;;;4374553;32;20186;-64
2021/03/13 00:52:39;;;;;;;17.13;4.27;;;7.50;92.60;;;;;;4375555;32;20190;-63
2021/03/13 00:55:07;;;;;;;15.47;3.63;;;7.40;92.40;;;;;;4375222;32;20180;-64
2021/03/13 00:57:34;;;;;;;17.03;3.63;;;7.50;92.50;;;;;;4374564;32;20212;-66
2021/03/13 01:00:01;;;;;;;16.57;3.77;;;7.50;92.50;;;;;;4372842;32;20258;-64
2021/03/13 01:02:27;;;;;;;14.07;3.27;;;7.50;92.40;;;;;;4370287;32;20174;-64
2021/03/13 01:04:54;;;;;;;15.07;4.07;;;7.50;92.50;;;;;;4366348;32;20625;-63
2021/03/13 01:07:20;;;;;;;17.53;3.80;;;7.50;92.40;;;;;;4364443;32;20190;-64
2021/03/13 01:09:52;;;;;;;11.93;3.57;;;7.50;92.40;;;;;;4362885;32;20199;-68
2021/03/13 01:12:19;;;;;;;13.33;3.53;;;7.50;92.40;;;;;;4367586;32;20195;-64
2021/03/13 01:14:46;;;;;;;16.30;3.90;;;7.50;92.50;;;;;;4363980;32;20259;-66
2021/03/13 01:17:12;;;;;;;16.90;4.13;;;7.30;93.10;;;;;;4366575;32;20188;-63
2021/03/13 01:19:38;;;;;;;17.77;4.30;;;7.20;93.90;;;;;;4374977;32;20179;-66
2021/03/13 01:22:06;;;;;;;14.33;4.47;;;7.00;94.50;;;;;;4375845;32;20174;-63
2021/03/13 01:24:32;;;;;;;18.53;4.90;;;6.90;95.00;;;;;;4375166;32;20192;-66
2021/03/13 01:26:58;;;;;;;15.97;5.03;;;6.80;95.30;;;;;;4374720;32;20203;-64
2021/03/13 01:29:24;;;;;;;15.93;5.17;;;6.70;95.70;;;;;;4376536;32;20216;-65
2021/03/13 01:31:51;;;;;;;19.70;5.13;;;6.70;95.90;;;;;;4372505;32;20234;-64
2021/03/13 01:34:17;;;;;;;15.30;5.90;;;6.70;96.00;;;;;;4374825;32;20204;-64
2021/03/13 01:36:43;;;;;;;17.57;5.70;;;6.60;96.10;;;;;;4369002;32;20247;-64
2021/03/13 01:39:11;;;;;;;16.20;5.13;;;6.60;96.20;;;;;;4374779;32;20531;-64
2021/03/13 01:41:37;;;;;;;14.67;4.60;;;6.60;96.50;;;;;;4375831;32;20212;-67
2021/03/13 01:44:04;;;;;;;18.90;5.30;;;6.50;96.60;;;;;;4374635;32;20247;-63
2021/03/13 01:46:36;;;;;;;15.73;5.00;;;6.50;96.70;;;;;;4362119;32;20349;-65
2021/03/13 01:49:02;;;;;;;17.73;4.90;;;6.60;96.70;;;;;;4360379;32;20646;-64
2021/03/13 01:51:29;;;;;;;15.17;5.30;;;6.50;96.80;;;;;;4357612;32;20197;-63
2021/03/13 01:53:55;;;;;;;17.80;4.70;;;6.50;96.90;;;;;;4360368;32;20684;-63
2021/03/13 01:56:22;;;;;;;10.73;4.10;;;6.40;97.00;;;;;;4356215;32;20668;-63
2021/03/13 01:58:49;;;;;;;13.13;4.20;;;6.40;97.20;;;;;;4363014;32;20263;-63
2021/03/13 02:01:19;;;;;;;11.57;3.97;;;6.40;97.40;;;;;;4373657;32;20172;-63
2021/03/13 02:03:45;;;;;;;12.83;4.40;;;6.30;97.40;;;;;;4376099;32;20210;-64
2021/03/13 02:06:12;;;;;;;11.63;4.90;;;6.30;97.50;;;;;;4374328;32;20218;-64
2021/03/13 02:08:44;;;;;;;13.03;4.43;;;6.30;97.70;;;;;;4372832;32;20175;-64
2021/03/13 02:11:25;;;;;;;8.00;4.37;;;6.30;97.70;;;;;;4363145;32;20168;-64
2021/03/13 02:14:02;;;;;;;13.87;4.77;;;6.20;97.80;;;;;;4367847;32;20160;-65
2021/03/13 02:16:36;;;;;;;11.33;5.60;;;6.30;97.90;;;;;;4373088;32;20156;-64
2021/03/13 02:19:22;;;;;;;11.87;5.50;;;6.30;98.00;;;;;;4378615;32;20172;-64
2021/03/13 02:21:54;;;;;;;10.90;6.00;;;6.30;98.10;;;;;;4364759;32;20209;-68
2021/03/13 02:24:33;;;;;;;17.23;7.00;;;6.30;98.00;;;;;;4371035;32;20175;-66
2021/03/13 02:27:04;;;;;;;12.30;7.40;;;6.30;98.10;;;;;;4375060;32;20204;-65
2021/03/13 02:29:50;;;;;;;17.57;7.47;;;6.30;98.20;;;;;;4373327;32;20164;-64
2021/03/13 02:32:34;;;;;;;12.87;6.97;;;6.30;98.40;;;;;;4377405;32;20148;-63
2021/03/13 02:35:05;;;;;;;13.87;7.40;;;6.40;98.60;;;;;;4364240;32;20160;-63
2021/03/13 02:37:37;;;;;;;16.97;7.73;;;6.30;98.60;;;;;;4377125;32;20164;-64
2021/03/13 02:40:07;;;;;;;12.93;6.27;;;6.30;98.70;;;;;;4375541;32;20205;-63
2021/03/13 02:42:45;;;;;;;19.67;6.57;;;6.30;98.70;;;;;;4378722;32;20195;-63
2021/03/13 02:45:21;;;;;;;11.00;7.20;;;6.30;98.70;;;;;;4377254;32;20191;-63
2021/03/13 02:47:55;;;;;;;15.73;6.27;;;6.30;98.80;;;;;;4369219;32;20160;-63
2021/03/13 02:50:29;;;;;;;11.60;5.80;;;6.30;98.70;;;;;;4350131;33;20215;-64
2021/03/13 02:52:58;;;;;;;13.50;6.27;;;6.30;98.80;;;;;;4355252;33;20180;-65
2021/03/13 02:55:33;;;;;;;14.40;6.00;;;6.30;98.90;;;;;;4362642;32;20175;-65
2021/03/13 02:58:04;;;;;;;13.73;6.37;;;6.30;99.00;;;;;;4358680;32;20156;-65
2021/03/13 03:00:36;;;;;;;15.83;6.73;;;6.30;98.90;;;;;;4362061;33;20235;-66
2021/03/13 03:03:04;;;;;;;10.67;5.43;;;6.30;98.90;;;;;;4363320;32;20172;-64
2021/03/13 03:05:31;;;;;;;13.10;5.73;;;6.30;99.00;;;;;;4362282;32;20598;-63
2021/03/13 03:08:02;;;;;;;11.90;5.40;;;6.40;99.10;;;;;;4363186;32;20172;-67
2021/03/13 03:10:33;;;;;;;17.93;5.93;;;6.30;99.10;;;;;;4363614;32;20639;-66
2021/03/13 03:13:05;;;;;;;17.63;5.83;;;6.30;99.00;;;;;;4361986;32;20157;-64
2021/03/13 03:15:36;;;;;;;16.83;5.50;;;6.30;99.00;;;;;;4356299;33;20199;-63
2021/03/13 03:18:06;;;;;;;12.17;5.80;;;6.30;99.10;;;;;;4353073;33;20164;-66
2021/03/13 03:20:34;;;;;;;11.40;5.30;;;6.30;99.20;;;;;;4361468;32;20178;-63
2021/03/13 03:23:03;;;;;;;10.53;4.83;;;6.30;99.40;;;;;;4361257;32;20177;-67
2021/03/13 03:25:33;;;;;;;13.10;4.90;;;6.30;99.20;;;;;;4362767;32;20160;-64
2021/03/13 03:28:01;;;;;;;10.53;5.20;;;6.40;99.20;;;;;;4346987;33;20191;-66
2021/03/13 03:30:29;;;;;;;12.90;5.20;;;6.40;99.20;;;;;;4354276;33;20550;-63
2021/03/13 03:32:58;;;;;;;20.50;4.90;;;6.40;99.20;;;;;;4360721;33;20216;-67
2021/03/13 03:35:26;;;;;;;16.03;4.70;;;6.40;99.20;;;;;;4354087;32;20177;-66
2021/03/13 03:37:56;;;;;;;16.47;4.33;;;6.40;99.30;;;;;;4362155;32;20223;-65
2021/03/13 03:40:28;;;;;;;12.60;3.73;;;6.40;99.20;;;;;;4361687;33;20153;-64
2021/03/13 03:43:00;;;;;;;10.30;4.57;;;6.50;99.20;;;;;;4360262;32;20183;-65
2021/03/13 03:45:27;;;;;;;12.73;3.80;;;6.40;99.30;;;;;;4367908;32;20184;-64
2021/03/13 03:48:07;;;;;;;9.13;3.73;;;6.50;99.30;;;;;;4355952;32;20215;-63
2021/03/13 03:50:37;;;;;;;9.13;4.20;;;6.50;99.30;;;;;;4347900;33;20215;-64
2021/03/13 03:53:07;;;;;;;16.67;4.87;;;6.50;99.40;;;;;;4371573;32;20192;-64
2021/03/13 03:55:38;;;;;;;13.87;5.10;;;6.50;99.30;;;;;;4360717;32;20597;-66
2021/03/13 03:58:08;;;;;;;8.70;4.07;;;6.60;99.40;;;;;;4362048;32;20168;-64
2021/03/13 04:00:38;;;;;;;19.00;5.53;;;6.60;99.40;;;;;;4362856;32;20196;-62
2021/03/13 04:03:12;;;;;;;12.20;4.17;;;6.60;99.30;;;;;;4372287;32;20206;-67
2021/03/13 04:05:43;;;;;;;12.47;4.90;;;6.60;99.40;;;;;;4366035;32;20156;-64
2021/03/13 04:08:15;;;;;;;16.17;4.30;;;6.60;99.50;;;;;;4358137;33;20190;-65
2021/03/13 04:10:47;;;;;;;9.00;3.70;;;6.60;99.50;;;;;;4353697;32;20235;-65
2021/03/13 04:13:16;;;;;;;10.50;4.33;;;6.70;99.50;;;;;;4346768;32;20209;-67
2021/03/13 04:15:44;;;;;;;12.37;4.13;;;6.70;99.50;;;;;;4367521;32;20226;-65
2021/03/13 04:18:12;;;;;;;9.13;4.00;;;6.70;99.50;;;;;;4349030;33;20518;-67
2021/03/13 04:20:40;;;;;;;12.63;5.00;;;6.70;99.50;;;;;;4363081;32;20161;-66
2021/03/13 04:23:07;;;;;;;15.73;4.00;;;6.70;99.40;;;;;;4360811;33;20168;-65
2021/03/13 04:25:35;;;;;;;13.93;4.03;;;6.70;99.50;;;;;;4362016;32;20165;-65
2021/03/13 04:28:02;;;;;;;13.57;4.80;;;6.70;99.50;;;;;;4362292;32;20199;-64
2021/03/13 04:30:28;;;;;;;8.47;4.30;;;6.80;99.50;;;;;;4367427;32;20261;-65
2021/03/13 04:32:57;;;;;;;16.23;5.00;;;6.70;99.50;;;;;;4367083;32;20156;-65
2021/03/13 04:35:27;;;;;;;16.57;4.07;;;6.80;99.50;;;;;;4360593;32;20364;-66
2021/03/13 04:37:55;;;;;;;8.47;3.93;;;6.80;99.50;;;;;;4346934;32;20188;-63
2021/03/13 04:40:26;;;;;;;12.90;4.20;;;6.80;99.50;;;;;;4363851;32;20180;-64
2021/03/13 04:42:54;;;;;;;12.70;4.03;;;6.80;99.50;;;;;;4370335;32;20164;-66
2021/03/13 04:45:21;;;;;;;12.93;3.90;;;6.80;99.60;;;;;;4356542;32;20211;-65
2021/03/13 04:47:50;;;;;;;12.97;3.70;;;6.80;99.60;;;;;;4374809;32;20204;-65
2021/03/13 04:50:19;;;;;;;15.27;4.70;;;6.90;99.60;;;;;;4376670;32;20183;-66
2021/03/13 04:52:46;;;;;;;9.47;4.43;;;6.90;99.60;;;;;;4375227;32;20207;-66
2021/03/13 04:55:19;;;;;;;9.33;3.50;;;6.90;99.60;;;;;;4371911;32;20222;-65
2021/03/13 04:57:49;;;;;;;11.63;4.43;;;6.90;99.50;;;;;;4365031;32;20204;-67
2021/03/13 05:00:16;;;;;;;13.03;3.80;;;6.90;99.50;;;;;;4375814;32;20467;-68
2021/03/13 05:02:43;;;;;;;12.73;4.20;;;6.90;99.60;;;;;;4372537;32;20180;-64
2021/03/13 05:05:15;;;;;;;16.67;4.57;;;7.00;99.50;;;;;;4374539;32;20210;-67
2021/03/13 05:07:41;;;;;;;11.77;4.50;;;7.00;99.60;;;;;;4374716;32;20171;-66
2021/03/13 05:10:10;;;;;;;8.80;4.10;;;7.00;99.60;;;;;;4375286;32;20222;-68
2021/03/13 05:12:43;;;;;;;12.43;4.73;;;7.00;99.70;;;;;;4374860;32;20160;-66
2021/03/13 05:15:10;;;;;;;7.63;3.80;;;7.00;99.60;;;;;;4374776;32;20164;-64
2021/03/13 05:17:36;;;;;;;11.70;4.90;;;7.00;99.60;;;;;;4374882;32;20156;-63
2021/03/13 05:20:06;;;;;;;8.87;4.33;;;7.00;99.60;;;;;;4361266;32;20153;-65
2021/03/13 05:22:32;;;;;;;10.67;4.70;;;7.00;99.70;;;;;;4373027;32;20176;-64
2021/03/13 05:24:58;;;;;;;13.20;4.37;;;7.00;99.50;;;;;;4374965;32;20212;-65
2021/03/13 05:27:26;;;;;;;9.63;3.73;;;7.00;99.50;;;;;;4374655;32;20226;-66
2021/03/13 05:29:52;;;;;;;9.63;4.00;;;7.10;99.60;;;;;;4375052;32;20152;-65
2021/03/13 05:32:18;;;;;;;9.63;3.87;;;7.10;99.60;;;;;;4374529;32;20454;-67
2021/03/13 05:34:45;;;;;;;9.07;4.10;;;7.10;99.50;;;;;;4374343;32;20618;-65
2021/03/13 05:37:12;;;;;;;7.00;3.53;;;7.10;99.60;;;;;;4376530;32;20160;-64
2021/03/13 05:39:39;;;;;;;8.43;3.13;;;7.10;99.40;;;;;;4375288;32;20161;-67
2021/03/13 05:42:07;;;;;;;6.50;2.87;;;7.10;99.20;;;;;;4370980;32;20259;-63
2021/03/13 05:44:36;;;;;;;3.90;2.47;;;7.10;98.90;;;;;;4364808;32;20613;-66
2021/03/13 05:47:02;;;;;;;8.50;2.27;;;7.10;98.70;;;;;;4376575;32;20148;-67
2021/03/13 05:49:31;;;;;;;6.20;2.00;;;7.00;98.20;;;;;;4377926;32;20230;-62
2021/03/13 05:51:59;;;;;;;9.20;1.77;;;6.90;97.40;;;;;;4363676;32;20179;-68
2021/03/13 05:54:29;;;;;;;8.43;1.97;;;6.90;97.10;;;;;;4373481;32;20222;-66
2021/03/13 05:56:59;;;;;;;6.10;1.40;;;6.80;97.40;;;;;;4378141;32;20171;-68
2021/03/13 05:59:27;;;;;;;11.97;3.00;;;6.70;97.10;;;;;;4378207;32;20164;-64
2021/03/13 06:01:54;;;;;;;8.53;1.40;;;6.70;96.90;;;;;;4379662;32;20596;-67
2021/03/13 06:04:20;;;;;;;6.70;1.30;;;6.60;97.40;;;;;;4377248;32;20176;-64
2021/03/13 06:06:49;;;;;;;12.77;1.67;;;6.60;97.30;;;;;;4376508;32;20306;-68
2021/03/13 06:09:18;;;;;;;5.53;1.60;;;6.50;96.90;;;;;;4377211;32;20168;-66
2021/03/13 06:11:46;;;;;;;5.27;1.40;;;6.50;97.10;;;;;;4377365;32;20347;-64
2021/03/13 06:14:12;;;;;;;5.60;1.37;;;6.40;96.80;;;;;;4375434;32;20175;-64
2021/03/13 06:16:39;;;;;;;8.83;1.50;;;6.40;96.60;;;;;;4370692;32;20172;-65
2021/03/13 06:19:06;;;;;;;7.63;1.20;;;6.40;96.60;;;;;;4378725;32;20206;-63
2021/03/13 06:21:34;;;;;;;4.83;1.40;;;6.40;96.00;;;;;;4377977;32;20719;-63
2021/03/13 06:24:04;;;;;;;5.63;1.50;;;6.40;95.90;;;;;;4377309;32;20260;-63
2021/03/13 06:26:50;;;;;;;8.53;1.20;;;6.50;95.00;;;;;;4378136;32;20624;-63
2021/03/13 06:29:17;;;;;;;8.23;1.50;;;6.50;95.20;;;;;;4374168;32;20292;-68
2021/03/13 06:31:43;;;;;;;12.90;1.40;;;6.50;94.60;;;;;;4368116;32;20216;-66
2021/03/13 06:34:27;;;;;;;8.23;1.60;;;6.50;94.10;;;;;;4375943;32;20504;-64
2021/03/13 06:37:23;;;;;;;5.60;1.67;;;6.40;94.00;;;;;;4373948;32;20376;-63
2021/03/13 06:39:52;;;;;;;10.13;1.73;;;6.50;93.90;;;;;;4376224;32;20168;-65
2021/03/13 06:42:26;;;;;;;6.23;1.57;;;6.50;93.80;;;;;;4372635;32;20165;-66
2021/03/13 06:45:05;;;;;;;12.77;2.43;;;6.50;93.20;;;;;;4370940;32;20223;-63
2021/03/13 06:47:36;;;;;;;9.97;2.13;;;6.50;93.30;;;;;;4377000;32;20214;-65
2021/03/13 06:50:23;;;;;;;9.80;2.60;;;6.60;93.20;;;;;;4371549;32;20605;-63
2021/03/13 06:52:53;;;;;;;18.47;2.73;;;6.70;92.80;;;;;;4375185;32;20179;-63
2021/03/13 06:55:25;;;;;;;11.80;2.27;;;6.70;92.70;;;;;;4375897;32;20156;-65
2021/03/13 06:57:53;;;;;;;15.17;3.33;;;6.60;93.00;;;;;;4375800;32;20179;-67
2021/03/13 07:00:28;;;;;;;12.83;2.87;;;6.80;92.40;;;;;;4372017;32;20168;-62
2021/03/13 07:03:12;;;;;;;9.33;2.53;;;6.80;92.10;;;;;;4376685;32;20208;-64
2021/03/13 07:05:41;;;;;;;16.67;3.73;;;6.90;92.50;;;;;;4375981;32;20484;-63
2021/03/13 07:08:27;;;;;;;17.20;2.90;;;6.90;92.40;;;;;;4372128;32;20172;-65
2021/03/13 07:11:14;;;;;;;21.10;3.30;;;6.90;92.50;;;;;;4372751;32;20161;-66
2021/03/13 07:13:41;;;;;;;16.00;3.97;;;7.00;92.40;;;;;;4360528;32;20601;-67
2021/03/13 07:16:32;;;;;;;15.53;3.23;;;7.00;92.10;;;;;;4371342;32;20590;-63
2021/03/13 07:19:02;;;;;;;21.23;4.57;;;7.10;92.20;;;;;;4374319;32;20183;-66
2021/03/13 07:21:30;;;;;;;14.00;3.33;;;7.20;91.60;;;;;;4373707;32;20153;-66
2021/03/13 07:24:01;;;;;;;11.13;3.27;;;7.30;91.80;;;;;;4375918;32;20593;-68
2021/03/13 07:26:33;;;;;;;14.83;3.17;;;7.40;91.40;;;;;;4374843;32;20160;-63
2021/03/13 07:29:01;;;;;;;20.03;3.90;;;7.50;91.10;;;;;;4369096;32;20188;-66
2021/03/13 07:31:33;;;;;;;24.00;3.63;;;7.50;91.10;;;;;;4374244;32;20180;-69
2021/03/13 07:34:01;;;;;;;16.30;4.07;;;7.50;91.00;;;;;;4371158;32;20153;-63
2021/03/13 07:36:29;;;;;;;21.23;4.10;;;7.70;91.20;;;;;;4373494;32;20188;-66
2021/03/13 07:39:03;;;;;;;13.87;2.83;;;7.90;91.00;;;;;;4371473;32;20168;-67
2021/03/13 07:41:37;;;;;;;16.47;3.60;;;8.10;89.80;;;;;;4375849;32;20164;-66
2021/03/13 07:44:06;;;;;;;13.83;3.37;;;8.10;89.80;;;;;;4374236;32;20160;-65
2021/03/13 07:46:34;;;;;;;17.03;4.07;;;8.20;90.50;;;;;;4374934;32;20219;-69
2021/03/13 07:49:00;;;;;;;16.33;3.73;;;8.20;89.90;;;;;;4377265;32;20156;-64
2021/03/13 07:51:29;;;;;;;11.17;3.57;;;8.20;90.00;;;;;;4373626;32;20627;-67
2021/03/13 07:54:01;;;;;;;17.67;3.77;;;8.20;90.50;;;;;;4372720;32;20183;-65
2021/03/13 07:56:31;;;;;;;20.23;4.13;;;8.20;89.60;;;;;;4371586;32;20153;-65
2021/03/13 07:58:57;;;;;;;14.50;3.20;;;8.30;90.40;;;;;;4373416;32;20156;-64
2021/03/13 08:01:48;;;;;;;19.50;4.37;;;8.20;90.20;;;;;;4362554;32;20179;-64
2021/03/13 08:04:56;;;;;;;24.10;4.30;;;8.30;90.50;;;;;;4366597;32;20215;-66
2021/03/13 08:07:22;;;;;;;17.17;3.37;;;8.50;90.20;;;;;;4311058;33;20178;-63
2021/03/13 08:09:50;;;;;;;16.37;4.20;;;8.70;88.80;;;;;;4311234;33;20252;-63
2021/03/13 08:12:38;;;;;;;19.07;4.17;;;8.70;89.30;;;;;;4309757;33;20237;-63
2021/03/13 08:15:12;;;;;;;21.37;3.80;;;8.50;88.90;;;;;;4313583;33;20304;-65
2021/03/13 08:17:39;;;;;;;18.97;4.40;;;8.40;90.00;;;;;;4313996;33;20436;-64
2021/03/13 08:20:15;;;;;;;18.40;4.17;;;8.60;90.00;;;;;;4303309;33;20170;-65
2021/03/13 08:22:42;;;;;;;18.63;4.10;;;8.80;88.80;;;;;;4306624;33;20192;-64
2021/03/13 08:25:28;;;;;;;19.40;3.97;;;8.50;89.00;;;;;;4310979;33;20254;-66
2021/03/13 08:27:57;;;;;;;18.83;4.23;;;8.40;90.00;;;;;;4312935;33;20401;-66
2021/03/13 08:30:33;;;;;;;19.77;3.37;;;8.30;89.40;;;;;;4320370;33;20169;-63
2021/03/13 08:33:00;;;;;;;12.00;2.90;;;8.50;90.10;;;;;;4314708;33;20319;-65
2021/03/13 08:35:38;;;;;;;20.77;4.20;;;8.50;89.70;;;;;;4314752;33;20673;-62
2021/03/13 08:38:07;;;;;;;14.43;2.90;;;8.60;88.40;;;;;;4335649;32;20223;-65
2021/03/13 08:40:55;;;;;;;17.00;4.10;;;8.60;89.20;;;;;;4374119;32;20196;-63
2021/03/13 08:43:39;;;;;;;19.57;3.70;;;8.70;87.70;;;;;;4339973;32;1571864;-63
2021/03/13 08:46:48;;;;;;;22.67;4.17;;;8.70;89.10;;;;;;4399855;32;20166;-63
2021/03/13 08:49:47;;;;;;;20.10;4.57;;;8.50;89.30;;;;;;4400944;32;20183;-64
2021/03/13 08:52:37;;;;;;;21.13;4.00;;;8.30;89.10;;;;;;4400312;32;20230;-63
2021/03/13 08:55:06;;;;;;;20.97;3.77;;;8.20;89.20;;;;;;4391217;32;20176;-67
2021/03/13 08:57:44;;;;;;;20.93;4.00;;;8.10;88.90;;;;;;4403369;32;20634;-67
2021/03/13 09:00:18;;;;;;;17.17;4.77;;;8.20;87.90;;;;;;4403789;32;20162;-62
2021/03/13 09:02:47;;;;;;;27.63;5.80;;;8.10;87.80;;;;;;4404567;32;20572;-63
2021/03/13 09:05:23;;;;;;;20.40;4.40;;;8.10;87.00;;;;;;4393756;32;20175;-67
2021/03/13 09:07:51;;;;;;;21.60;4.60;;;8.20;88.30;;;;;;4399164;32;20201;-64
2021/03/13 09:10:19;;;;;;;26.90;4.67;;;8.60;87.10;;;;;;4401634;32;20219;-68
2021/03/13 09:15:28;;;;;;;22.20;4.67;;;8.60;87.10;;;;;;4396988;32;20651;-67
2021/03/13 09:17:55;;;;;;;23.87;4.80;;;8.60;90.20;;;;;;4404317;32;20250;-64
2021/03/13 09:20:22;;;;;;;26.23;5.40;;;8.70;90.20;;;;;;4394137;32;20148;-63
2021/03/13 09:22:50;;;;;;;34.13;6.60;;;8.60;88.50;;;;;;4400897;32;20231;-64
2021/03/13 09:25:20;;;;;;;28.37;6.27;;;8.70;87.70;;;;;;4399633;32;20152;-66
2021/03/13 09:27:56;;;;;;;34.63;5.93;;;9.00;86.40;;;;;;4399206;32;20144;-63
2021/03/13 09:30:24;;;;;;;32.47;6.00;;;9.10;85.20;;;;;;4396292;32;20193;-62
2021/03/13 09:32:51;;;;;;;30.83;6.80;;;8.90;84.10;;;;;;4403305;32;20170;-65
2021/03/13 09:35:21;;;;;;;35.27;5.87;;;8.80;84.00;;;;;;4396485;32;20237;-66
2021/03/13 09:37:50;;;;;;;24.97;5.27;;;8.70;85.40;;;;;;4398822;32;20166;-64
2021/03/13 09:40:21;;;;;;;35.77;6.53;;;8.90;84.50;;;;;;4398380;32;20254;-62
2021/03/13 09:42:49;;;;;;;28.17;6.83;;;8.70;85.20;;;;;;4402317;32;20160;-65
2021/03/13 09:45:22;;;;;;;33.37;7.37;;;8.60;86.00;;;;;;4402333;32;20167;-68
2021/03/13 09:47:50;;;;;;;33.07;7.60;;;9.10;86.30;;;;;;4399377;32;20202;-62
2021/03/13 09:50:18;;;;;;;32.73;7.03;;;9.70;82.50;;;;;;4399943;32;20152;-66
2021/03/13 09:52:47;;;;;;;22.70;6.17;;;9.90;80.90;;;;;;4404230;32;20246;-63
2021/03/13 09:55:16;;;;;;;28.83;6.13;;;9.70;80.30;;;;;;4403998;32;20144;-64
2021/03/13 09:57:45;;;;;;;33.13;6.57;;;9.30;82.30;;;;;;4396399;32;20193;-64
2021/03/13 10:00:23;;;;;;;32.20;7.23;;;9.10;83.40;;;;;;4402534;32;20480;-64
2021/03/13 10:02:53;;;;;;;32.07;5.90;;;9.00;82.50;;;;;;4400605;32;20170;-64
2021/03/13 10:05:22;;;;;;;22.60;5.27;;;8.80;83.10;;;;;;4405993;32;20144;-65
2021/03/13 10:07:49;;;;;;;33.63;5.93;;;8.70;83.50;;;;;;4398969;32;20172;-66
2021/03/13 10:10:22;;;;;;;26.93;5.63;;;8.70;84.40;;;;;;4400764;32;20159;-65
2021/03/13 10:12:55;;;;;;;24.40;6.00;;;8.60;84.10;;;;;;4387446;32;20225;-67
2021/03/13 10:15:27;;;;;;;19.83;4.70;;;8.70;85.20;;;;;;4398924;32;20186;-64
2021/03/13 10:18:00;;;;;;;29.63;5.17;;;8.60;83.30;;;;;;4403533;32;20564;-66
2021/03/13 10:20:29;;;;;;;23.87;4.57;;;8.70;82.60;;;;;;4396651;32;20152;-66
2021/03/13 10:23:02;;;;;;;26.70;4.20;;;8.60;81.70;;;;;;4399215;32;20191;-64
2021/03/13 10:25:30;;;;;;;24.33;4.63;;;8.70;81.40;;;;;;4402450;32;20159;-66
2021/03/13 10:28:03;;;;;;;25.03;4.50;;;9.00;79.10;;;;;;4401871;32;20160;-66
2021/03/13 10:30:31;;;;;;;23.33;5.37;;;9.20;79.60;;;;;;4402035;32;20588;-66
2021/03/13 10:32:57;;;;;;;19.00;4.50;;;9.30;78.90;;;;;;4401883;32;20220;-65
2021/03/13 10:35:27;;;;;;;17.93;4.40;;;9.40;78.80;;;;;;4404670;32;20508;-65
2021/03/13 10:38:05;;;;;;;23.87;4.97;;;9.50;78.40;;;;;;4399450;32;20274;-68
2021/03/13 10:40:41;;;;;;;21.53;4.93;;;9.50;78.10;;;;;;4405556;32;20168;-65
2021/03/13 10:43:12;;;;;;;20.13;4.63;;;9.20;78.30;;;;;;4404619;32;20159;-68
2021/03/13 10:45:43;;;;;;;16.43;4.20;;;9.00;79.70;;;;;;4403235;32;20565;-65
2021/03/13 10:48:11;;;;;;;29.67;4.67;;;9.00;80.20;;;;;;4404730;32;20204;-65
2021/03/13 10:50:42;;;;;;;27.07;5.00;;;8.90;80.60;;;;;;4397774;32;20153;-65
2021/03/13 10:53:34;;;;;;;23.10;4.87;;;8.90;80.90;;;;;;4413617;32;20200;-66
2021/03/13 10:56:02;;;;;;;19.90;4.33;;;9.10;79.40;;;;;;4406413;32;20170;-64
2021/03/13 10:58:32;;;;;;;27.10;3.80;;;9.10;80.20;;;;;;4403379;32;20564;-64
2021/03/13 11:01:01;;;;;;;24.27;4.20;;;9.40;78.50;;;;;;4398083;32;20153;-65
2021/03/13 11:03:28;;;;;;;24.57;5.50;;;9.20;82.30;;;;;;4405553;32;20174;-65
2021/03/13 11:05:57;;;;;;;23.67;4.93;;;9.00;82.50;;;;;;4406809;32;20205;-66
2021/03/13 11:08:25;;;;;;;17.60;4.10;;;9.10;82.90;;;;;;4402971;32;20132;-66
2021/03/13 11:10:54;;;;;;;14.20;3.10;;;9.20;81.90;;;;;;4396963;32;20145;-64
2021/03/13 11:13:21;;;;;;;14.33;3.47;;;9.20;77.60;;;;;;4404938;32;20162;-67
2021/03/13 11:15:52;;;;;;;17.87;3.60;;;9.00;78.60;;;;;;4400805;32;20160;-65
2021/03/13 11:18:25;;;;;;;20.23;4.33;;;8.80;79.20;;;;;;4402317;32;20166;-67
2021/03/13 11:20:55;;;;;;;17.37;3.93;;;8.90;80.00;;;;;;4401760;32;20162;-63
2021/03/13 11:23:24;;;;;;;18.93;4.73;;;8.80;80.10;;;;;;4404541;32;20159;-64
2021/03/13 11:25:50;;;;;;;20.43;4.37;;;8.80;82.30;;;;;;4399067;32;20183;-63
2021/03/13 11:28:22;;;;;;;15.63;4.07;;;8.60;84.00;;;;;;4398197;32;20148;-67
2021/03/13 11:31:07;;;;;;;18.17;4.27;;;8.60;84.30;;;;;;4402972;32;20433;-66
2021/03/13 11:33:37;;;;;;;17.50;4.17;;;8.50;84.80;;;;;;4401234;32;20564;-66
2021/03/13 11:36:05;;;;;;;18.40;3.50;;;8.10;86.70;;;;;;4404648;32;20603;-65
2021/03/13 11:38:34;;;;;;;19.00;3.37;;;7.90;85.60;;;;;;4402385;32;20180;-65
2021/03/13 11:41:04;;;;;;;14.27;3.33;;;8.00;85.60;;;;;;4400818;32;20439;-65
2021/03/13 11:43:47;;;;;;;22.17;4.17;;;8.10;84.30;;;;;;4394565;32;20162;-65
2021/03/13 11:46:20;;;;;;;13.20;2.33;;;8.30;82.40;;;;;;4397557;32;20168;-65
2021/03/13 11:48:51;;;;;;;12.00;2.17;;;8.20;83.00;;;;;;4393322;32;20159;-64
2021/03/13 11:51:20;;;;;;;33.47;4.30;;;7.90;84.90;;;;;;4399028;32;20592;-64
2021/03/13 11:53:46;;;;;;;12.53;2.10;;;7.90;86.40;;;;;;4404138;32;20158;-65
2021/03/13 11:56:12;;;;;;;8.90;2.37;;;7.90;87.60;;;;;;4395224;32;20484;-65
2021/03/13 11:58:39;;;;;;;12.50;2.80;;;8.20;86.10;;;;;;4405109;32;20174;-68
2021/03/13 12:01:05;;;;;;;16.47;3.17;;;8.40;85.90;;;;;;4396079;32;20507;-67
2021/03/13 12:03:34;;;;;;;12.90;2.83;;;8.60;83.20;;;;;;4400767;32;20846;-69
2021/03/13 12:06:02;;;;;;;9.03;2.40;;;8.60;83.50;;;;;;4404096;32;20178;-69
2021/03/13 12:08:28;;;;;;;13.40;2.60;;;8.60;83.20;;;;;;4400987;32;20155;-65
2021/03/13 12:10:54;;;;;;;13.93;2.30;;;8.70;83.70;;;;;;4404219;32;20380;-65
2021/03/13 12:13:24;;;;;;;12.57;2.80;;;9.10;83.00;;;;;;4402122;32;20152;-64
2021/03/13 12:15:51;;;;;;;15.20;2.17;;;9.30;81.20;;;;;;4405753;32;20162;-65
2021/03/13 12:18:17;;;;;;;11.87;2.13;;;9.60;79.30;;;;;;4399550;32;20179;-67
2021/03/13 12:20:45;;;;;;;10.37;2.57;;;9.70;77.60;;;;;;4402083;32;20148;-65
2021/03/13 12:23:12;;;;;;;9.77;2.13;;;9.70;77.60;;;;;;4396006;32;20170;-65
2021/03/13 12:25:38;;;;;;;8.70;1.90;;;9.80;77.40;;;;;;4399826;32;20164;-66
2021/03/13 12:28:07;;;;;;;9.63;2.00;;;9.80;78.30;;;;;;4398300;32;20584;-65
2021/03/13 12:30:33;;;;;;;10.53;1.93;;;9.80;75.60;;;;;;4400399;32;20221;-68
2021/03/13 12:32:59;;;;;;;8.40;2.23;;;9.90;76.40;;;;;;4402256;32;20183;-66
2021/03/13 12:35:27;;;;;;;8.10;1.70;;;9.90;76.50;;;;;;4404485;32;20227;-66
2021/03/13 12:37:53;;;;;;;7.63;2.10;;;9.50;78.70;;;;;;4399276;32;20152;-64
2021/03/13 12:40:21;;;;;;;8.83;1.70;;;9.20;79.20;;;;;;4398529;32;20208;-70
2021/03/13 12:42:47;;;;;;;7.80;1.13;;;9.00;80.80;;;;;;4401688;32;20273;-68
2021/03/13 12:45:14;;;;;;;7.87;1.53;;;8.90;81.60;;;;;;4398184;32;20231;-68
2021/03/13 12:47:40;;;;;;;7.07;1.30;;;8.90;82.00;;;;;;4405041;32;20148;-68
2021/03/13 12:50:08;;;;;;;4.97;1.40;;;9.20;82.00;;;;;;4399673;32;20488;-66
2021/03/13 12:52:35;;;;;;;7.40;2.00;;;9.30;81.20;;;;;;4395879;32;20316;-68
2021/03/13 12:55:01;;;;;;;6.17;1.77;;;9.50;82.00;;;;;;4399014;32;20569;-66
2021/03/13 12:57:31;;;;;;;12.97;2.07;;;9.70;80.90;;;;;;4401218;32;20618;-66
2021/03/13 12:59:57;;;;;;;8.33;2.43;;;9.90;80.60;;;;;;4402854;32;20156;-65
2021/03/13 13:02:25;;;;;;;11.57;2.70;;;9.80;79.60;;;;;;4401029;32;20196;-70
2021/03/13 13:04:52;;;;;;;13.33;2.30;;;9.80;79.90;;;;;;4398542;32;20157;-68
2021/03/13 13:07:18;;;;;;;10.93;2.30;;;10.10;77.80;;;;;;4405136;32;20156;-65